createdAt,value
2022-09-02T00:00:13.700Z,101330.30
2022-09-02T00:03:06.798Z,101318.92
2022-09-02T00:05:39.404Z,101313.75
2022-09-02T00:08:12.931Z,101325.34
2022-09-02T00:10:47.106Z,101323.06
2022-09-02T00:13:21.172Z,101313.84
2022-09-02T00:15:53.673Z,101305.02
2022-09-02T00:18:27.444Z,101318.63
2022-09-02T00:21:01.220Z,101317.15
2022-09-02T00:23:33.597Z,101320.81
2022-09-02T00:26:06.110Z,101320.63
2022-09-02T00:28:39.455Z,101287.70
2022-09-02T00:31:17.109Z,101319.11
2022-09-02T00:33:51.901Z,101312.48
2022-09-02T00:36:24.370Z,101317.73
2022-09-02T00:38:56.951Z,101317.70
2022-09-02T00:41:30.944Z,101318.30
2022-09-02T00:44:05.490Z,101314.71
2022-09-02T00:46:38.738Z,101314.44
2022-09-02T00:49:16.039Z,101312.24
2022-09-02T00:51:52.603Z,101312.15
2022-09-02T00:54:26.775Z,101292.46
2022-09-02T00:56:59.721Z,101308.30
2022-09-02T00:59:43.073Z,101311.90
2022-09-02T01:02:17.263Z,101309.14
2022-09-02T01:04:50.025Z,101311.18
2022-09-02T01:07:22.827Z,101314.04
2022-09-02T01:09:56.606Z,101313.05
2022-09-02T01:12:31.336Z,101312.77
2022-09-02T01:15:04.279Z,101312.25
2022-09-02T01:17:37.321Z,101313.59
2022-09-02T01:20:15.495Z,101313.23
2022-09-02T01:22:48.497Z,101313.86
2022-09-02T01:25:24.032Z,101314.21
2022-09-02T01:27:59.720Z,101318.73
2022-09-02T01:30:32.950Z,101315.10
2022-09-02T01:33:05.436Z,101321.89
2022-09-02T01:35:39.024Z,101321.59
2022-09-02T01:38:11.958Z,101318.36
2022-09-02T01:40:44.945Z,101323.16
2022-09-02T01:43:21.521Z,101303.19
2022-09-02T01:45:56.852Z,101324.38
2022-09-02T01:48:30.482Z,101318.13
2022-09-02T01:51:05.045Z,101314.66
2022-09-02T01:53:37.303Z,101312.77
2022-09-02T01:56:10.948Z,101301.92
2022-09-02T01:58:43.711Z,101299.92
2022-09-02T02:01:16.598Z,101302.75
2022-09-02T02:03:52.995Z,101302.81
2022-09-02T02:06:25.813Z,101303.35
2022-09-02T02:08:59.532Z,101304.50
2022-09-02T02:11:32.732Z,101303.83
2022-09-02T02:14:06.022Z,101305.75
2022-09-02T02:16:39.821Z,101306.59
2022-09-02T02:19:12.181Z,101305.86
2022-09-02T02:21:45.205Z,101306.98
2022-09-02T02:24:17.707Z,101303.83
2022-09-02T02:26:51.195Z,101281.58
2022-09-02T02:29:24.382Z,101303.55
2022-09-02T02:31:56.698Z,101300.77
2022-09-02T02:34:29.130Z,101301.29
2022-09-02T02:37:02.369Z,101305.80
2022-09-02T02:39:34.785Z,101306.66
2022-09-02T02:42:08.188Z,101302.21
2022-09-02T02:44:40.655Z,101306.48
2022-09-02T02:47:13.336Z,101307.56
2022-09-02T02:49:46.446Z,101307.80
2022-09-02T02:52:18.743Z,101306.52
2022-09-02T02:54:51.162Z,101310.57
2022-09-02T02:57:23.286Z,101312.09
2022-09-02T02:59:56.177Z,101312.45
2022-09-02T03:02:34.425Z,101316.64
2022-09-02T03:05:09.418Z,101314.31
2022-09-02T03:07:42.252Z,101311.42
2022-09-02T03:10:15.884Z,101311.95
2022-09-02T03:12:48.765Z,101310.13
2022-09-02T03:15:23.181Z,101313.46
2022-09-02T03:17:58.494Z,101309.89
2022-09-02T03:20:31.290Z,101310.19
2022-09-02T03:23:04.831Z,101312.30
2022-09-02T03:25:37.962Z,101315.36
2022-09-02T03:28:17.729Z,101320.22
2022-09-02T03:30:51.098Z,101316.64
2022-09-02T03:33:23.889Z,101316.70
2022-09-02T03:35:57.412Z,101317.30
2022-09-02T03:38:31.197Z,101300.73
2022-09-02T03:41:03.495Z,101315.77
2022-09-02T03:43:35.627Z,101316.39
2022-09-02T03:46:09.576Z,101313.96
2022-09-02T03:48:44.091Z,101315.03
2022-09-02T03:51:17.264Z,101313.67
2022-09-02T03:53:49.842Z,101312.88
2022-09-02T03:56:22.650Z,101314.44
2022-09-02T03:58:55.560Z,101314.58
2022-09-02T04:01:33.677Z,101316.31
2022-09-02T04:04:07.686Z,101318.79
2022-09-02T04:06:41.015Z,101317.55
2022-09-02T04:09:13.477Z,101320.21
2022-09-02T04:11:46.229Z,101318.25
2022-09-02T04:14:19.019Z,101325.79
2022-09-02T04:16:52.279Z,101324.21
2022-09-02T04:19:24.645Z,101320.40
2022-09-02T04:21:57.067Z,101318.64
2022-09-02T04:24:29.815Z,101319.61
2022-09-02T04:27:04.280Z,101330.54
2022-09-02T04:29:37.960Z,101325.20
2022-09-02T04:32:10.500Z,101326.48
2022-09-02T04:34:43.376Z,101324.54
2022-09-02T04:37:17.314Z,101324.46
2022-09-02T04:39:50.319Z,101327.24
2022-09-02T04:42:22.639Z,101329.28
2022-09-02T04:44:56.616Z,101328.77
2022-09-02T04:47:29.172Z,101332.40
2022-09-02T04:50:02.173Z,101333.16
2022-09-02T04:52:35.165Z,101332.94
2022-09-02T04:55:08.999Z,101334.55
2022-09-02T04:57:41.123Z,101336.36
2022-09-02T05:00:16.530Z,101333.73
2022-09-02T05:02:49.784Z,101338.77
2022-09-02T05:05:22.714Z,101336.61
2022-09-02T05:07:57.160Z,101335.52
2022-09-02T05:10:29.354Z,101339.75
2022-09-02T05:13:02.481Z,101339.45
2022-09-02T05:15:40.319Z,101337.65
2022-09-02T05:18:13.270Z,101335.43
2022-09-02T05:20:45.897Z,101335.54
2022-09-02T05:23:18.444Z,101336.83
2022-09-02T05:25:51.692Z,101335.34
2022-09-02T05:28:23.903Z,101332.08
2022-09-02T05:30:56.238Z,101335.61
2022-09-02T05:33:28.482Z,101333.11
2022-09-02T05:36:01.226Z,101332.86
2022-09-02T05:38:33.590Z,101333.02
2022-09-02T05:41:09.372Z,101336.38
2022-09-02T05:43:45.928Z,101317.51
2022-09-02T05:46:23.467Z,101337.48
2022-09-02T05:49:17.763Z,101342.15
2022-09-02T05:51:56.910Z,101340.73
2022-09-02T05:54:36.010Z,101343.42
2022-09-02T05:57:13.735Z,101341.56
2022-09-02T05:59:56.279Z,101343.96
2022-09-02T06:02:31.132Z,101351.42
2022-09-02T06:05:03.494Z,101345.34
2022-09-02T06:07:38.968Z,101331.71
2022-09-02T06:10:13.113Z,101348.96
2022-09-02T06:12:45.642Z,101350.66
2022-09-02T06:15:18.616Z,101350.42
2022-09-02T06:17:51.183Z,101353.16
2022-09-02T06:20:23.254Z,101351.45
2022-09-02T06:22:55.417Z,101348.62
2022-09-02T06:25:28.942Z,101348.41
2022-09-02T06:28:05.174Z,101348.27
2022-09-02T06:30:41.475Z,101346.20
2022-09-02T06:33:14.152Z,101345.30
2022-09-02T06:35:47.542Z,101345.92
2022-09-02T06:38:21.628Z,101349.10
2022-09-02T06:40:56.771Z,101352.13
2022-09-02T06:43:43.088Z,101350.54
2022-09-02T06:46:31.710Z,101347.17
2022-09-02T06:49:06.431Z,101347.58
2022-09-02T06:51:41.497Z,101351.88
2022-09-02T06:54:17.066Z,101353.41
2022-09-02T06:56:51.213Z,101356.37
2022-09-02T06:59:26.924Z,101353.48
2022-09-02T07:02:02.175Z,101351.19
2022-09-02T07:05:03.522Z,101347.70
2022-09-02T07:07:37.568Z,101354.06
2022-09-02T07:10:15.625Z,101354.95
2022-09-02T07:12:51.839Z,101350.52
2022-09-02T07:15:24.239Z,101350.58
2022-09-02T07:17:57.503Z,101348.02
2022-09-02T07:20:41.034Z,101357.25
2022-09-02T07:23:13.202Z,101357.30
2022-09-02T07:25:46.550Z,101358.17
2022-09-02T07:28:19.297Z,101358.23
2022-09-02T07:30:58.991Z,101358.52
2022-09-02T07:33:32.703Z,101357.36
2022-09-02T07:36:06.194Z,101340.60
2022-09-02T07:38:45.857Z,101344.84
2022-09-02T07:41:18.110Z,101357.53
2022-09-02T07:43:51.837Z,101356.71
2022-09-02T07:46:26.053Z,101358.28
2022-09-02T07:48:59.014Z,101357.49
2022-09-02T07:51:33.275Z,101362.89
2022-09-02T07:54:08.090Z,101361.08
2022-09-02T07:56:40.782Z,101359.57
2022-09-02T07:59:13.703Z,101361.28
2022-09-02T08:01:48.377Z,101362.75
2022-09-02T08:04:20.087Z,101359.31
2022-09-02T08:06:52.978Z,101357.48
2022-09-02T08:09:25.138Z,101359.66
2022-09-02T08:11:58.634Z,101360.95
2022-09-02T08:14:30.790Z,101357.27
2022-09-02T08:17:03.414Z,101361.22
2022-09-02T08:19:36.288Z,101359.14
2022-09-02T08:22:08.790Z,101348.35
2022-09-02T08:24:40.903Z,101359.50
2022-09-02T08:27:12.975Z,101358.05
2022-09-02T08:29:45.028Z,101361.91
2022-09-02T08:32:17.338Z,101345.01
2022-09-02T08:34:49.716Z,101356.69
2022-09-02T08:37:22.840Z,101356.53
2022-09-02T08:39:54.900Z,101356.52
2022-09-02T08:42:33.040Z,101362.00
2022-09-02T08:45:12.419Z,101359.34
2022-09-02T08:47:48.713Z,101356.91
2022-09-02T08:50:22.018Z,101358.20
2022-09-02T08:53:01.811Z,101354.45
2022-09-02T08:55:44.357Z,101347.39
2022-09-02T08:58:22.956Z,101350.02
2022-09-02T09:01:07.337Z,101348.73
2022-09-02T09:03:52.975Z,101352.42
2022-09-02T09:06:35.784Z,101354.16
2022-09-02T09:09:15.142Z,101349.86
2022-09-02T09:11:52.212Z,101346.13
2022-09-02T09:14:31.605Z,101350.30
2022-09-02T09:17:09.716Z,101348.31
2022-09-02T09:19:49.251Z,101345.81
2022-09-02T09:22:31.112Z,101349.37
2022-09-02T09:25:03.747Z,101339.91
2022-09-02T09:27:35.847Z,101335.02
2022-09-02T09:30:15.107Z,101339.77
2022-09-02T09:32:54.802Z,101329.55
2022-09-02T09:35:27.842Z,101333.22
2022-09-02T09:38:00.051Z,101328.08
2022-09-02T09:40:34.045Z,101330.69
2022-09-02T09:43:16.879Z,101325.61
2022-09-02T09:45:51.649Z,101325.79
2022-09-02T09:48:29.117Z,101320.95
2022-09-02T09:51:17.403Z,101318.95
2022-09-02T09:53:50.629Z,101318.08
2022-09-02T09:56:37.527Z,101323.13
2022-09-02T09:59:29.648Z,101315.15
2022-09-02T10:02:02.167Z,101313.50
2022-09-02T10:04:43.916Z,101308.10
2022-09-02T10:07:35.284Z,101308.50
2022-09-02T10:10:20.629Z,101306.95
2022-09-02T10:12:55.686Z,101306.52
2022-09-02T10:15:38.256Z,101303.41
2022-09-02T10:18:23.933Z,101305.64
2022-09-02T10:21:15.076Z,101298.14
2022-09-02T10:23:59.390Z,101285.50
2022-09-02T10:26:41.033Z,101305.19
2022-09-02T10:29:49.482Z,101302.02
2022-09-02T10:32:43.177Z,101290.25
2022-09-02T10:35:18.845Z,101286.73
2022-09-02T10:38:07.816Z,101279.44
2022-09-02T10:40:49.809Z,101276.34
2022-09-02T10:43:33.893Z,101286.95
2022-09-02T10:46:10.647Z,101285.47
2022-09-02T10:48:57.767Z,101283.61
2022-09-02T10:51:38.208Z,101284.91
2022-09-02T10:54:23.428Z,101285.14
2022-09-02T10:57:04.103Z,101284.62
2022-09-02T10:59:41.180Z,101285.92
2022-09-02T11:02:21.176Z,101289.91
2022-09-02T11:04:59.243Z,101281.33
2022-09-02T11:07:37.388Z,101276.28
2022-09-02T11:10:13.641Z,101282.73
2022-09-02T11:12:52.349Z,101277.92
2022-09-02T11:15:32.363Z,101276.91
2022-09-02T11:18:15.937Z,101277.46
2022-09-02T11:20:57.709Z,101274.20
2022-09-02T11:23:37.052Z,101264.11
2022-09-02T11:26:17.446Z,101264.11
2022-09-02T11:29:08.042Z,101267.37
2022-09-02T11:31:50.620Z,101269.55
2022-09-02T11:34:48.957Z,101266.14
2022-09-02T11:37:35.718Z,101262.67
2022-09-02T11:40:33.235Z,101256.20
2022-09-02T11:43:22.433Z,101260.16
2022-09-02T11:46:27.163Z,101256.55
2022-09-02T11:49:25.908Z,101257.34
2022-09-02T11:52:07.566Z,101254.91
2022-09-02T11:54:42.802Z,101255.21
2022-09-02T11:57:22.456Z,101248.73
2022-09-02T12:00:32.958Z,101246.67
2022-09-02T12:03:37.964Z,101238.39
2022-09-02T12:06:14.303Z,101236.02
2022-09-02T12:09:12.260Z,101237.00
2022-09-02T12:11:55.263Z,101234.23
2022-09-02T12:15:07.821Z,101231.90
2022-09-02T12:18:08.358Z,101232.16
2022-09-02T12:21:15.915Z,101227.75
2022-09-02T12:24:22.826Z,101216.97
2022-09-02T12:27:21.066Z,101211.92
2022-09-02T12:29:54.183Z,101212.52
2022-09-02T12:32:46.113Z,101205.31
2022-09-02T12:35:37.343Z,101211.27
2022-09-02T12:38:28.016Z,101209.27
2022-09-02T12:41:17.868Z,101207.81
2022-09-02T12:44:10.445Z,101204.08
2022-09-02T12:47:01.584Z,101206.33
2022-09-02T12:49:54.621Z,101200.46
2022-09-02T12:52:49.167Z,101199.04
2022-09-02T12:55:27.361Z,101201.85
2022-09-02T12:58:11.999Z,101204.14
2022-09-02T13:00:59.846Z,101207.85
2022-09-02T13:03:52.985Z,101203.83
2022-09-02T13:06:36.014Z,101209.84
2022-09-02T13:09:43.872Z,101204.14
2022-09-02T13:12:51.908Z,101196.98
2022-09-02T13:15:36.732Z,101203.17
2022-09-02T13:18:38.775Z,101202.77
2022-09-02T13:21:48.698Z,101198.59
2022-09-02T13:24:48.912Z,101196.08
2022-09-02T13:27:55.416Z,101195.96
2022-09-02T13:30:38.712Z,101196.36
2022-09-02T13:33:13.210Z,101189.16
2022-09-02T13:35:46.045Z,101173.33
2022-09-02T13:38:26.605Z,101183.83
2022-09-02T13:40:59.835Z,101180.43
2022-09-02T13:43:32.256Z,101173.98
2022-09-02T13:46:04.947Z,101174.20
2022-09-02T13:48:40.989Z,101174.88
2022-09-02T13:51:16.281Z,101175.88
2022-09-02T13:57:01.776Z,101158.73
2022-09-02T13:59:47.682Z,101159.83
2022-09-02T14:02:23.695Z,101149.36
2022-09-02T14:04:58.923Z,101159.02
2022-09-02T14:07:36.827Z,101149.63
2022-09-02T14:10:13.509Z,101152.55
2022-09-02T14:12:47.345Z,101131.01
2022-09-02T14:15:34.379Z,101144.06
2022-09-02T14:18:18.030Z,101124.34
2022-09-02T14:21:01.926Z,101127.02
2022-09-02T14:23:36.496Z,101136.52
2022-09-02T14:26:08.957Z,101134.77
2022-09-02T14:28:41.218Z,101130.15
2022-09-02T14:31:29.161Z,101128.86
2022-09-02T14:34:02.624Z,101128.58
2022-09-02T14:36:38.631Z,101131.75
2022-09-02T14:39:17.004Z,101131.33
2022-09-02T14:41:52.455Z,101133.62
2022-09-02T14:44:34.054Z,101131.16
2022-09-02T14:47:14.792Z,101132.61
2022-09-02T14:49:51.687Z,101139.59
2022-09-02T14:52:27.248Z,101141.77
2022-09-02T14:55:00.712Z,101137.66
2022-09-02T14:57:35.450Z,101136.20
2022-09-02T15:00:14.036Z,101136.05
2022-09-02T15:02:47.803Z,101121.27
2022-09-02T15:05:20.141Z,101132.82
2022-09-02T15:07:52.353Z,101133.75
2022-09-02T15:10:26.222Z,101132.36
2022-09-02T15:12:59.379Z,101118.66
2022-09-02T15:15:31.815Z,101133.83
2022-09-02T15:18:05.387Z,101136.35
2022-09-02T15:20:41.377Z,101132.46
2022-09-02T15:23:13.458Z,101132.52
2022-09-02T15:25:45.576Z,101132.23
2022-09-02T15:28:17.974Z,101130.77
2022-09-02T15:30:50.112Z,101126.04
2022-09-02T15:33:22.262Z,101124.02
2022-09-02T15:35:54.763Z,101124.05
2022-09-02T15:38:26.965Z,101116.91
2022-09-02T15:41:10.372Z,101117.73
2022-09-02T15:43:42.951Z,101114.02
2022-09-02T15:46:25.120Z,101118.41
2022-09-02T15:49:02.651Z,101111.74
2022-09-02T15:51:36.303Z,101113.87
2022-09-02T15:54:11.432Z,101113.36
2022-09-02T15:56:49.841Z,101114.19
2022-09-02T15:59:23.436Z,101116.73
2022-09-02T16:01:58.774Z,101119.30
2022-09-02T16:04:31.245Z,101117.75
2022-09-02T16:07:04.758Z,101122.52
2022-09-02T16:09:37.194Z,101124.55
2022-09-02T16:12:10.594Z,101123.11
2022-09-02T16:14:42.961Z,101124.93
2022-09-02T16:17:16.505Z,101124.44
2022-09-02T16:19:48.540Z,101122.59
2022-09-02T16:22:20.699Z,101119.91
2022-09-02T16:24:52.864Z,101117.70
2022-09-02T16:27:39.433Z,101112.78
2022-09-02T16:30:13.231Z,101111.14
2022-09-02T16:32:45.490Z,101106.55
2022-09-02T16:35:18.532Z,101105.83
2022-09-02T16:37:51.122Z,101105.16
2022-09-02T16:40:23.236Z,101106.54
2022-09-02T16:42:55.852Z,101105.77
2022-09-02T16:45:27.911Z,101107.64
2022-09-02T16:48:00.764Z,101111.83
2022-09-02T16:50:32.859Z,101113.86
2022-09-02T16:53:04.958Z,101107.73
2022-09-02T16:55:40.824Z,101109.86
2022-09-02T16:58:15.325Z,101107.94
2022-09-02T17:00:47.565Z,101108.22
2022-09-02T17:03:19.796Z,101105.69
2022-09-02T17:05:52.295Z,101108.38
2022-09-02T17:08:24.530Z,101111.36
2022-09-02T17:11:13.599Z,101108.59
2022-09-02T17:13:46.895Z,101112.38
2022-09-02T17:16:22.377Z,101107.60
2022-09-02T17:18:55.261Z,101109.41
2022-09-02T17:21:31.527Z,101107.29
2022-09-02T17:24:04.211Z,101109.43
2022-09-02T17:26:39.530Z,101106.73
2022-09-02T17:29:26.229Z,101109.90
2022-09-02T17:32:06.567Z,101108.48
2022-09-02T17:34:39.820Z,101112.48
2022-09-02T17:37:11.995Z,101110.42
2022-09-02T17:39:46.097Z,101114.47
2022-09-02T17:42:17.863Z,101111.04
2022-09-02T17:44:50.538Z,101113.98
2022-09-02T17:47:25.803Z,101114.17
2022-09-02T17:49:56.490Z,101115.09
2022-09-02T17:52:28.530Z,101116.73
2022-09-02T17:55:00.710Z,101118.05
2022-09-02T17:57:42.635Z,101126.20
2022-09-02T18:00:17.367Z,101125.99
2022-09-02T18:03:13.556Z,101113.16
2022-09-02T18:06:03.359Z,101129.09
2022-09-02T18:08:41.299Z,101130.97
2022-09-02T18:11:13.722Z,101119.49
2022-09-02T18:13:57.130Z,101136.96
2022-09-02T18:16:42.057Z,101137.69
2022-09-02T18:19:29.144Z,101136.23
2022-09-02T18:22:10.452Z,101137.14
2022-09-02T18:25:08.507Z,101133.52
2022-09-02T18:27:52.628Z,101122.83
2022-09-02T18:30:33.659Z,101132.25
2022-09-02T18:33:25.726Z,101131.21
2022-09-02T18:36:05.663Z,101132.27
2022-09-02T18:38:47.362Z,101116.83
2022-09-02T18:41:32.046Z,101137.58
2022-09-02T18:44:15.188Z,101136.70
2022-09-02T18:46:53.161Z,101142.41
2022-09-02T18:49:28.515Z,101144.50
2022-09-02T18:52:04.971Z,101145.88
2022-09-02T18:54:45.011Z,101144.26
2022-09-02T18:57:17.721Z,101141.21
2022-09-02T18:59:55.265Z,101140.81
2022-09-02T19:02:34.020Z,101140.23
2022-09-02T19:05:10.651Z,101137.25
2022-09-02T19:08:03.042Z,101123.09
2022-09-02T19:10:35.164Z,101136.19
2022-09-02T19:13:08.470Z,101134.42
2022-09-02T19:15:41.259Z,101136.49
2022-09-02T19:18:14.415Z,101140.42
2022-09-02T19:20:46.733Z,101139.70
2022-09-02T19:23:19.251Z,101143.06
2022-09-02T19:25:51.666Z,101135.73
2022-09-02T19:28:24.593Z,101140.23
2022-09-02T19:31:02.465Z,101140.31
2022-09-02T19:33:37.552Z,101143.13
2022-09-02T19:36:10.430Z,101140.62
2022-09-02T19:38:42.488Z,101129.28
2022-09-02T19:41:15.067Z,101144.23
2022-09-02T19:43:47.225Z,101148.16
2022-09-02T19:46:55.831Z,101151.21
2022-09-02T19:49:13.120Z,101154.48
2022-09-02T19:51:47.200Z,101158.64
2022-09-02T19:54:19.664Z,101158.88
2022-09-02T19:56:51.725Z,101160.47
2022-09-02T19:59:24.042Z,101162.95
2022-09-02T20:01:56.359Z,101164.39
2022-09-02T20:04:30.166Z,101166.60
2022-09-02T20:07:02.317Z,101166.12
2022-09-02T20:09:34.406Z,101152.88
2022-09-02T20:12:07.201Z,101168.40
2022-09-02T20:14:39.763Z,101168.14
2022-09-02T20:17:15.825Z,101170.05
2022-09-02T20:19:48.248Z,101173.31
2022-09-02T20:22:21.550Z,101174.48
2022-09-02T20:24:53.990Z,101174.80
2022-09-02T20:27:37.329Z,101176.67
2022-09-02T20:30:12.900Z,101170.75
2022-09-02T20:32:57.157Z,101181.20
2022-09-02T20:35:53.090Z,101180.06
2022-09-02T20:38:42.329Z,101183.58
2022-09-02T20:41:28.316Z,101183.64
2022-09-02T20:44:16.763Z,101177.28
2022-09-02T20:47:00.479Z,101185.68
2022-09-02T20:49:48.644Z,101179.55
2022-09-02T20:52:31.435Z,101177.52
2022-09-02T20:55:09.756Z,101177.58
2022-09-02T20:58:16.246Z,101178.34
2022-09-02T21:01:03.134Z,101177.20
2022-09-02T21:03:44.412Z,101176.02
2022-09-02T21:06:17.926Z,101175.23
2022-09-02T21:09:02.222Z,101173.52
2022-09-02T21:11:48.079Z,101174.61
2022-09-02T21:14:24.705Z,101178.11
2022-09-02T21:17:03.534Z,101184.50
2022-09-02T21:19:42.796Z,101181.84
2022-09-02T21:22:22.976Z,101174.04
2022-09-02T21:25:01.169Z,101174.10
2022-09-02T21:27:45.225Z,101179.19
2022-09-02T21:30:21.831Z,101178.86
2022-09-02T21:32:58.731Z,101184.39
2022-09-02T21:35:36.477Z,101184.95
2022-09-02T21:38:15.435Z,101183.98
2022-09-02T21:41:03.985Z,101181.71
2022-09-02T21:43:56.983Z,101186.86
2022-09-02T21:46:35.772Z,101181.41
2022-09-02T21:49:17.680Z,101180.52
2022-09-02T21:51:56.079Z,101169.79
2022-09-02T21:54:43.172Z,101179.06
2022-09-02T21:57:31.788Z,101179.23
2022-09-02T22:00:08.055Z,101178.51
2022-09-02T22:02:59.590Z,101180.59
2022-09-02T22:05:49.274Z,101183.13
2022-09-02T22:08:29.786Z,101181.05
2022-09-02T22:11:09.803Z,101182.81
2022-09-02T22:13:42.294Z,101185.92
2022-09-02T22:16:25.653Z,101188.09
2022-09-02T22:19:02.497Z,101186.61
2022-09-02T22:21:39.980Z,101189.59
2022-09-02T22:24:13.012Z,101171.78
2022-09-02T22:26:51.510Z,101187.58
2022-09-02T22:29:36.599Z,101183.64
2022-09-02T22:32:14.756Z,101184.34
2022-09-02T22:34:51.823Z,101179.06
2022-09-02T22:37:34.317Z,101175.70
2022-09-02T22:40:09.790Z,101173.69
2022-09-02T22:42:44.449Z,101174.64
2022-09-02T22:45:38.363Z,101174.78
2022-09-02T22:48:33.769Z,101175.17
2022-09-02T22:51:30.686Z,101174.91
2022-09-02T22:54:02.881Z,101174.23
2022-09-02T22:56:52.205Z,101152.23
2022-09-02T22:59:35.807Z,101174.48
2022-09-02T23:02:18.183Z,101173.52
2022-09-02T23:05:08.048Z,101176.07
2022-09-02T23:07:41.747Z,101172.86
2022-09-02T23:10:24.360Z,101176.80
2022-09-02T23:13:02.850Z,101174.64
2022-09-02T23:15:42.642Z,101178.87
2022-09-02T23:18:22.459Z,101181.11
2022-09-02T23:21:02.220Z,101178.18
2022-09-02T23:23:42.081Z,101181.86
2022-09-02T23:26:31.845Z,101177.48
2022-09-02T23:29:16.066Z,101163.89
2022-09-02T23:32:08.233Z,101166.85
2022-09-02T23:34:58.577Z,101182.30
2022-09-02T23:37:43.590Z,101182.27
2022-09-02T23:40:23.796Z,101180.20
2022-09-02T23:42:59.580Z,101179.94
2022-09-02T23:45:33.832Z,101179.08
2022-09-02T23:48:28.749Z,101181.23
2022-09-02T23:51:14.770Z,101182.37
2022-09-02T23:54:00.425Z,101177.55
2022-09-02T23:56:54.451Z,101156.11
2022-09-02T23:59:42.930Z,101176.74
